Anderson, Nebraska
Current Conditions -  °F | °C
As of 5:15 AM on Sunday 23 Nov 2014 (Local Time) from KHDE Reporting Station
Moderate Fog Moderate Fog  
Wind Chill: 34°   Ceiling: 100
Heat Index: 39°   Visibility: 0.5mi
Dew Point: 38°   Wind: 7mph
Humidity: 96%   Direction: 280°W
Pressure: 29.48"   Gusts: NA
Location:  40.5251°N, 99.2414°W
Report Text: KHDE 231115Z AUTO 28006KT 1/2SM FG BKN001 04/04 A2948 RMK AO2 T00410035
Loading
Personal Weather Stations






























Interactive Weather Map New forecast layout! Learn more

10-Day Weather Forecast

Advertisements
Track Severe Weather on mobile